Axton, Virginia
Current Conditions -  °F | °C
As of 1:35 PM on Monday 20 Oct 2014 (Local Time) from KMTV Reporting Station
Clear Clear  
Wind Chill: 66°   Ceiling: Unl
Heat Index: 66°   Visibility: 10mi
Dew Point: 47°   Wind: 6mph
Humidity: 50%   Direction: 230°SW
Pressure: 30.05"   Gusts: NA
Location:  36.66°N, 79.71°W
Report Text: KMTV 201735Z AUTO 23005KT 10SM CLR 19/08 A3005 RMK AO2 T01880082
Loading
Personal Weather Stations






























Interactive Weather Map
Tropical Storm Tracking
New forecast layout! Learn more

10-Day Weather Forecast

Advertisements
Track Severe Weather on mobile